createdAt,value
2023-03-03T00:02:12.763Z,100816.19
2023-03-03T00:04:41.342Z,100829.63
2023-03-03T00:07:09.314Z,100823.31
2023-03-03T00:09:37.780Z,100815.63
2023-03-03T00:12:25.065Z,100819.78
2023-03-03T00:14:54.202Z,100822.25
2023-03-03T00:17:25.096Z,100816.72
2023-03-03T00:19:53.643Z,100823.03
2023-03-03T00:22:32.229Z,100815.00
2023-03-03T00:25:31.937Z,100809.31
2023-03-03T00:28:31.088Z,100807.09
2023-03-03T00:31:01.807Z,100814.47
2023-03-03T00:33:35.534Z,100811.69
2023-03-03T00:36:16.493Z,100809.53
2023-03-03T00:38:44.447Z,100809.97
2023-03-03T00:41:27.945Z,100807.22
2023-03-03T00:43:55.944Z,100802.09
2023-03-03T00:46:24.517Z,100807.66
2023-03-03T00:48:53.082Z,100801.19
2023-03-03T00:51:28.539Z,100806.81
2023-03-03T00:53:58.417Z,100801.69
2023-03-03T00:56:27.930Z,100793.66
2023-03-03T00:58:56.146Z,100791.06
2023-03-03T01:01:25.992Z,100793.59
2023-03-03T01:03:55.562Z,100794.16
2023-03-03T01:06:24.018Z,100800.25
2023-03-03T01:08:52.105Z,100802.41
2023-03-03T01:11:24.175Z,100799.25
2023-03-03T01:13:53.628Z,100791.91
2023-03-03T01:16:22.040Z,100795.69
2023-03-03T01:18:51.775Z,100792.28
2023-03-03T01:21:20.157Z,100782.84
2023-03-03T01:23:48.117Z,100792.00
2023-03-03T01:26:16.826Z,100789.94
2023-03-03T01:28:44.793Z,100773.31
2023-03-03T01:31:13.871Z,100778.09
2023-03-03T01:33:42.143Z,100773.06
2023-03-03T01:36:10.569Z,100763.03
2023-03-03T01:38:39.462Z,100765.94
2023-03-03T01:41:07.722Z,100769.38
2023-03-03T01:43:35.726Z,100766.63
2023-03-03T01:46:03.969Z,100759.31
2023-03-03T01:48:39.240Z,100758.09
2023-03-03T01:51:07.620Z,100757.31
2023-03-03T01:53:43.075Z,100757.25
2023-03-03T01:56:11.725Z,100753.59
2023-03-03T01:58:49.766Z,100751.47
2023-03-03T02:01:22.476Z,100749.53
2023-03-03T02:03:53.599Z,100750.00
2023-03-03T02:06:30.180Z,100742.09
2023-03-03T02:09:08.207Z,100738.84
2023-03-03T02:11:38.449Z,100736.25
2023-03-03T02:14:06.354Z,100731.09
2023-03-03T02:16:34.697Z,100726.88
2023-03-03T02:19:05.694Z,100726.91
2023-03-03T02:21:33.964Z,100717.78
2023-03-03T02:24:19.964Z,100722.19
2023-03-03T02:26:48.936Z,100719.03
2023-03-03T02:29:16.963Z,100714.72
2023-03-03T02:31:45.843Z,100717.38
2023-03-03T02:34:13.798Z,100715.88
2023-03-03T02:36:42.852Z,100716.38
2023-03-03T02:39:23.768Z,100711.78
2023-03-03T02:42:08.490Z,100711.56
2023-03-03T02:44:42.756Z,100704.25
2023-03-03T02:47:11.049Z,100700.66
2023-03-03T02:49:39.780Z,100701.78
2023-03-03T02:52:10.873Z,100711.69
2023-03-03T02:54:41.752Z,100703.56
2023-03-03T02:57:10.190Z,100694.34
2023-03-03T02:59:38.159Z,100695.53
2023-03-03T03:02:13.219Z,100688.94
2023-03-03T03:04:42.357Z,100690.38
2023-03-03T03:07:12.297Z,100687.78
2023-03-03T03:09:40.788Z,100682.09
2023-03-03T03:12:09.011Z,100685.28
2023-03-03T03:14:37.571Z,100672.38
2023-03-03T03:17:07.459Z,100683.50
2023-03-03T03:19:35.454Z,100672.44
2023-03-03T03:22:04.783Z,100668.50
2023-03-03T03:24:35.739Z,100672.88
2023-03-03T03:27:06.958Z,100673.28
2023-03-03T03:29:35.309Z,100663.66
2023-03-03T03:32:03.837Z,100670.78
2023-03-03T03:34:31.848Z,100676.47
2023-03-03T03:37:00.220Z,100672.13
2023-03-03T03:39:29.929Z,100671.38
2023-03-03T03:41:58.486Z,100665.53
2023-03-03T03:44:26.435Z,100672.06
2023-03-03T03:46:56.054Z,100671.09
2023-03-03T03:49:24.180Z,100672.19
2023-03-03T03:51:54.709Z,100670.25
2023-03-03T03:54:26.115Z,100671.09
2023-03-03T03:56:55.376Z,100675.28
2023-03-03T03:59:24.094Z,100662.78
2023-03-03T04:01:52.717Z,100666.91
2023-03-03T04:04:22.515Z,100671.94
2023-03-03T04:06:51.088Z,100677.00
2023-03-03T04:09:20.329Z,100666.03
2023-03-03T04:11:49.584Z,100662.88
2023-03-03T04:14:18.543Z,100667.84
2023-03-03T04:16:46.764Z,100667.59
2023-03-03T04:19:14.787Z,100666.25
2023-03-03T04:21:44.454Z,100664.75
2023-03-03T04:24:12.411Z,100662.50
2023-03-03T04:26:40.946Z,100660.94
2023-03-03T04:29:10.984Z,100652.56
2023-03-03T04:31:39.882Z,100656.06
2023-03-03T04:34:10.107Z,100668.41
2023-03-03T04:36:38.571Z,100661.91
2023-03-03T04:39:06.543Z,100663.34
2023-03-03T04:41:35.492Z,100657.03
2023-03-03T04:44:03.647Z,100662.56
2023-03-03T04:46:31.906Z,100667.31
2023-03-03T04:49:00.130Z,100663.00
2023-03-03T04:51:28.842Z,100662.34
2023-03-03T04:53:56.840Z,100655.34
2023-03-03T04:56:25.824Z,100652.56
2023-03-03T04:58:53.725Z,100648.34
2023-03-03T05:01:22.142Z,100652.09
2023-03-03T05:03:51.329Z,100655.00
2023-03-03T05:06:19.770Z,100650.19
2023-03-03T05:08:47.861Z,100661.72
2023-03-03T05:11:16.398Z,100649.34
2023-03-03T05:13:44.736Z,100649.91
2023-03-03T05:16:13.316Z,100641.47
2023-03-03T05:18:45.772Z,100653.38
2023-03-03T05:21:14.235Z,100648.00
2023-03-03T05:23:42.173Z,100653.31
2023-03-03T05:26:10.454Z,100653.31
2023-03-03T05:28:38.416Z,100658.38
2023-03-03T05:31:06.742Z,100658.72
2023-03-03T05:33:34.762Z,100663.13
2023-03-03T05:36:02.957Z,100659.91
2023-03-03T05:38:30.876Z,100666.28
2023-03-03T05:40:59.213Z,100658.63
2023-03-03T05:43:27.195Z,100664.31
2023-03-03T05:45:59.356Z,100671.56
2023-03-03T05:48:27.882Z,100668.28
2023-03-03T05:50:59.808Z,100668.53
2023-03-03T05:53:29.125Z,100666.63
2023-03-03T05:55:57.826Z,100673.16
2023-03-03T05:58:25.892Z,100686.88
2023-03-03T06:00:54.253Z,100687.06
2023-03-03T06:03:22.494Z,100688.56
2023-03-03T06:05:50.901Z,100674.56
2023-03-03T06:08:18.903Z,100680.16
2023-03-03T06:10:47.249Z,100682.19
2023-03-03T06:13:16.264Z,100683.72
2023-03-03T06:15:44.760Z,100690.22
2023-03-03T06:18:12.711Z,100688.41
2023-03-03T06:20:40.970Z,100694.44
2023-03-03T06:23:08.932Z,100693.31
2023-03-03T06:25:40.243Z,100697.59
2023-03-03T06:28:08.247Z,100693.78
2023-03-03T06:30:36.637Z,100702.19
2023-03-03T06:33:04.579Z,100701.75
2023-03-03T06:35:33.064Z,100699.09
2023-03-03T06:38:01.075Z,100709.19
2023-03-03T06:40:29.566Z,100699.25
2023-03-03T06:42:57.658Z,100709.50
2023-03-03T06:45:25.966Z,100697.56
2023-03-03T06:47:53.909Z,100699.53
2023-03-03T06:50:22.542Z,100700.28
2023-03-03T06:52:51.857Z,100701.00
2023-03-03T06:55:23.492Z,100703.03
2023-03-03T06:57:51.528Z,100706.34
2023-03-03T07:00:30.940Z,100701.25
2023-03-03T07:03:11.697Z,100706.28
2023-03-03T07:05:40.057Z,100708.09
2023-03-03T07:08:20.227Z,100709.09
2023-03-03T07:10:49.896Z,100716.22
2023-03-03T07:13:26.924Z,100707.31
2023-03-03T07:15:57.494Z,100712.53
2023-03-03T07:18:34.023Z,100710.47
2023-03-03T07:21:23.954Z,100712.88
2023-03-03T07:23:54.985Z,100720.00
2023-03-03T07:26:33.404Z,100717.38
2023-03-03T07:29:22.748Z,100732.06
2023-03-03T07:31:52.134Z,100725.50
2023-03-03T07:34:27.318Z,100721.69
2023-03-03T07:37:00.503Z,100720.34
2023-03-03T07:39:40.628Z,100723.97
2023-03-03T07:42:35.279Z,100727.03
2023-03-03T07:45:32.751Z,100724.13
2023-03-03T07:48:24.433Z,100736.16
2023-03-03T07:50:53.079Z,100737.28
2023-03-03T07:53:29.415Z,100731.50
2023-03-03T07:55:57.329Z,100730.19
2023-03-03T07:58:38.535Z,100728.94
2023-03-03T08:01:40.096Z,100727.22
2023-03-03T08:04:25.406Z,100730.38
2023-03-03T08:06:56.524Z,100734.69
2023-03-03T08:09:31.347Z,100737.50
2023-03-03T08:12:08.139Z,100744.84
2023-03-03T08:14:39.000Z,100742.13
2023-03-03T08:17:25.396Z,100741.81
2023-03-03T08:19:56.409Z,100740.25
2023-03-03T08:22:37.274Z,100744.19
2023-03-03T08:25:05.744Z,100748.16
2023-03-03T08:27:33.746Z,100745.00
2023-03-03T08:30:02.127Z,100749.19
2023-03-03T08:32:30.350Z,100744.19
2023-03-03T08:34:58.689Z,100741.50
2023-03-03T08:37:26.667Z,100747.66
2023-03-03T08:39:54.976Z,100747.91
2023-03-03T08:42:22.990Z,100748.47
2023-03-03T08:44:51.300Z,100751.09
2023-03-03T08:47:19.426Z,100744.50
2023-03-03T08:49:47.833Z,100751.44
2023-03-03T08:52:15.888Z,100745.22
2023-03-03T08:54:44.622Z,100745.41
2023-03-03T08:57:12.560Z,100757.50
2023-03-03T08:59:41.091Z,100755.97
2023-03-03T09:02:09.402Z,100751.47
2023-03-03T09:04:37.704Z,100749.31
2023-03-03T09:07:05.643Z,100752.53
2023-03-03T09:09:34.002Z,100758.09
2023-03-03T09:12:15.209Z,100757.75
2023-03-03T09:14:43.858Z,100757.59
2023-03-03T09:17:30.659Z,100758.97
2023-03-03T09:20:11.569Z,100755.28
2023-03-03T09:22:39.398Z,100760.28
2023-03-03T09:25:22.177Z,100756.50
2023-03-03T09:27:52.999Z,100768.34
2023-03-03T09:30:27.287Z,100754.25
2023-03-03T09:32:58.307Z,100755.50
2023-03-03T09:35:29.349Z,100756.84
2023-03-03T09:37:57.221Z,100760.06
2023-03-03T09:41:16.636Z,100759.88
2023-03-03T09:44:17.487Z,100751.78
2023-03-03T09:47:06.845Z,100747.78
2023-03-03T09:49:38.937Z,100758.06
2023-03-03T09:52:39.012Z,100756.34
2023-03-03T09:55:25.469Z,100760.75
2023-03-03T09:58:12.824Z,100762.88
2023-03-03T10:01:02.407Z,100757.44
2023-03-03T10:03:42.897Z,100760.81
2023-03-03T10:06:33.479Z,100757.94
2023-03-03T10:09:19.947Z,100763.13
2023-03-03T10:12:00.099Z,100762.56
2023-03-03T10:15:11.213Z,100763.97
2023-03-03T10:17:54.019Z,100773.53
2023-03-03T10:20:48.978Z,100770.28
2023-03-03T10:23:37.341Z,100769.41
2023-03-03T10:26:38.394Z,100765.38
2023-03-03T10:29:38.276Z,100766.25
2023-03-03T10:32:33.215Z,100761.59
2023-03-03T10:35:14.436Z,100766.38
2023-03-03T10:37:45.344Z,100769.41
2023-03-03T10:40:41.626Z,100768.28
2023-03-03T10:43:32.364Z,100775.94
2023-03-03T10:46:10.403Z,100776.00
2023-03-03T10:48:44.968Z,100775.72
2023-03-03T10:51:34.706Z,100771.44
2023-03-03T10:54:24.689Z,100778.22
2023-03-03T10:57:20.187Z,100772.59
2023-03-03T11:00:19.095Z,100769.19
2023-03-03T11:03:04.766Z,100770.78
2023-03-03T11:06:00.216Z,100768.16
2023-03-03T11:08:46.489Z,100771.25
2023-03-03T11:11:41.293Z,100777.63
2023-03-03T11:14:32.490Z,100776.22
2023-03-03T11:17:49.657Z,100767.69
2023-03-03T11:20:29.391Z,100766.09
2023-03-03T11:23:00.178Z,100768.16
2023-03-03T11:25:34.448Z,100763.25
2023-03-03T11:28:15.425Z,100762.28
2023-03-03T11:31:02.109Z,100758.13
2023-03-03T11:33:52.525Z,100758.88
2023-03-03T11:36:39.102Z,100760.56
2023-03-03T11:39:13.998Z,100758.19
2023-03-03T11:41:58.685Z,100752.28
2023-03-03T11:44:40.749Z,100740.78
2023-03-03T11:47:31.529Z,100742.53
2023-03-03T11:50:08.812Z,100735.97
2023-03-03T11:53:00.772Z,100736.78
2023-03-03T11:55:37.951Z,100732.19
2023-03-03T11:58:16.038Z,100731.47
2023-03-03T12:00:51.467Z,100720.09
2023-03-03T12:03:26.899Z,100727.69
2023-03-03T12:06:04.056Z,100733.97
2023-03-03T12:09:00.033Z,100730.38
2023-03-03T12:11:54.185Z,100733.78
2023-03-03T12:14:45.048Z,100724.78
2023-03-03T12:17:31.705Z,100730.00
2023-03-03T12:20:14.451Z,100722.69
2023-03-03T12:23:06.714Z,100723.03
2023-03-03T12:25:45.716Z,100718.19
2023-03-03T12:28:21.237Z,100724.94
2023-03-03T12:31:04.706Z,100725.28
2023-03-03T12:34:11.560Z,100730.00
2023-03-03T12:36:47.878Z,100719.88
2023-03-03T12:39:41.539Z,100722.22
2023-03-03T12:42:14.561Z,100716.97
2023-03-03T12:45:13.772Z,100716.06
2023-03-03T12:47:49.482Z,100711.66
2023-03-03T12:50:27.715Z,100714.94
2023-03-03T12:53:38.222Z,100715.97
2023-03-03T12:56:09.177Z,100710.06
2023-03-03T12:58:36.969Z,100707.50
2023-03-03T13:01:28.432Z,100715.97
2023-03-03T13:04:12.376Z,100708.22
2023-03-03T13:07:05.085Z,100702.09
2023-03-03T13:10:06.163Z,100707.19
2023-03-03T13:12:43.104Z,100706.31
2023-03-03T13:15:31.533Z,100707.59
2023-03-03T13:18:19.189Z,100718.16
2023-03-03T13:20:56.147Z,100710.84
2023-03-03T13:23:38.504Z,100713.84
2023-03-03T13:26:17.220Z,100705.19
2023-03-03T13:29:01.946Z,100710.28
2023-03-03T13:31:37.755Z,100706.69
2023-03-03T13:34:09.147Z,100703.13
2023-03-03T13:36:54.394Z,100701.91
2023-03-03T13:39:28.440Z,100701.97
2023-03-03T13:42:19.881Z,100695.97
2023-03-03T13:44:50.938Z,100693.78
2023-03-03T13:47:42.167Z,100695.16
2023-03-03T13:50:28.631Z,100687.59
2023-03-03T13:53:22.191Z,100696.47
2023-03-03T13:56:15.115Z,100688.03
2023-03-03T13:58:49.075Z,100696.09
2023-03-03T14:01:25.057Z,100687.03
2023-03-03T14:04:11.418Z,100684.81
2023-03-03T14:06:43.106Z,100674.41
2023-03-03T14:09:34.197Z,100682.72
2023-03-03T14:12:17.598Z,100679.75
2023-03-03T14:15:09.932Z,100676.94
2023-03-03T14:18:02.719Z,100674.31
2023-03-03T14:20:32.426Z,100680.41
2023-03-03T14:23:27.849Z,100670.72
2023-03-03T14:26:00.724Z,100665.75
2023-03-03T14:28:30.489Z,100671.53
2023-03-03T14:30:59.082Z,100673.94
2023-03-03T14:33:31.748Z,100677.09
2023-03-03T14:35:59.574Z,100673.16
2023-03-03T14:38:33.418Z,100667.22
2023-03-03T14:41:18.844Z,100668.34
2023-03-03T14:44:20.227Z,100668.91
2023-03-03T14:47:03.706Z,100675.69
2023-03-03T14:49:33.174Z,100670.75
2023-03-03T14:52:19.918Z,100678.63
2023-03-03T14:55:00.929Z,100676.38
2023-03-03T14:57:47.037Z,100672.50
2023-03-03T15:00:15.192Z,100672.47
2023-03-03T15:02:56.241Z,100671.13
2023-03-03T15:05:27.348Z,100665.19
2023-03-03T15:08:09.161Z,100670.41
2023-03-03T15:10:40.544Z,100670.19
2023-03-03T15:13:20.476Z,100672.97
2023-03-03T15:16:19.629Z,100669.84
2023-03-03T15:19:13.818Z,100672.66
2023-03-03T15:22:00.620Z,100670.75
2023-03-03T15:24:41.647Z,100676.25
2023-03-03T15:27:21.798Z,100681.09
2023-03-03T15:29:58.480Z,100669.34
2023-03-03T15:32:39.066Z,100667.19
2023-03-03T15:35:20.438Z,100656.94
2023-03-03T15:38:11.625Z,100658.16
2023-03-03T15:40:49.748Z,100652.09
2023-03-03T15:43:25.347Z,100654.22
2023-03-03T15:46:12.386Z,100652.00
2023-03-03T15:48:40.376Z,100657.84
2023-03-03T15:52:02.700Z,100659.31
2023-03-03T15:55:12.367Z,100658.44
2023-03-03T15:57:46.178Z,100656.97
2023-03-03T16:00:41.869Z,100652.03
2023-03-03T16:03:17.516Z,100656.81
2023-03-03T16:06:01.711Z,100652.38
2023-03-03T16:08:53.684Z,100658.66
2023-03-03T16:11:29.068Z,100654.09
2023-03-03T16:14:11.002Z,100655.09
2023-03-03T16:16:53.576Z,100655.63
2023-03-03T16:19:45.452Z,100658.69
2023-03-03T16:22:24.891Z,100656.78
2023-03-03T16:25:20.301Z,100660.47
2023-03-03T16:27:59.219Z,100662.72
2023-03-03T16:30:40.237Z,100665.94
2023-03-03T16:33:23.212Z,100662.25
2023-03-03T16:36:27.235Z,100663.31
2023-03-03T16:39:40.965Z,100676.13
2023-03-03T16:42:26.821Z,100671.69
2023-03-03T16:45:21.752Z,100676.97
2023-03-03T16:47:53.749Z,100685.06
2023-03-03T16:50:21.801Z,100687.06
2023-03-03T16:53:23.630Z,100692.03
2023-03-03T16:56:09.535Z,100687.47
2023-03-03T16:58:42.531Z,100691.09
2023-03-03T17:01:33.610Z,100699.44
2023-03-03T17:04:05.504Z,100707.06
2023-03-03T17:06:59.554Z,100705.19
2023-03-03T17:10:06.085Z,100716.19
2023-03-03T17:13:11.545Z,100706.78
2023-03-03T17:15:57.209Z,100716.41
2023-03-03T17:19:00.420Z,100728.78
2023-03-03T17:21:36.783Z,100724.13
2023-03-03T17:24:23.341Z,100725.25
2023-03-03T17:27:04.329Z,100728.38
2023-03-03T17:29:51.074Z,100732.84
2023-03-03T17:32:24.936Z,100731.97
2023-03-03T17:35:14.606Z,100733.75
2023-03-03T17:38:00.732Z,100739.69
2023-03-03T17:40:44.299Z,100739.91
2023-03-03T17:43:28.603Z,100744.47
2023-03-03T17:46:01.958Z,100742.84
2023-03-03T17:48:39.581Z,100747.38
2023-03-03T17:51:29.707Z,100749.84
2023-03-03T17:54:08.705Z,100749.75
2023-03-03T17:56:40.200Z,100759.22
2023-03-03T17:59:42.370Z,100758.19
2023-03-03T18:02:33.371Z,100757.25
2023-03-03T18:05:26.038Z,100767.44
2023-03-03T18:08:09.831Z,100770.84
2023-03-03T18:10:59.472Z,100772.97
2023-03-03T18:14:02.985Z,100771.13
2023-03-03T18:16:58.598Z,100779.28
2023-03-03T18:19:49.344Z,100786.69
2023-03-03T18:22:24.669Z,100791.78
2023-03-03T18:24:52.839Z,100795.25
2023-03-03T18:27:43.099Z,100788.94
2023-03-03T18:30:17.702Z,100784.84
2023-03-03T18:33:01.478Z,100778.16
2023-03-03T18:35:38.688Z,100791.50
2023-03-03T18:38:19.161Z,100792.56
2023-03-03T18:40:52.030Z,100790.09
2023-03-03T18:43:44.873Z,100794.59
2023-03-03T18:46:24.970Z,100798.84
2023-03-03T18:49:06.330Z,100800.88
2023-03-03T18:51:34.634Z,100799.31
2023-03-03T18:54:16.537Z,100795.47
2023-03-03T18:56:53.832Z,100800.22
2023-03-03T18:59:30.556Z,100801.38
2023-03-03T19:02:08.222Z,100805.81
2023-03-03T19:04:39.119Z,100800.31
2023-03-03T19:07:16.562Z,100795.34
2023-03-03T19:09:50.738Z,100802.34
2023-03-03T19:12:39.707Z,100805.19
2023-03-03T19:15:29.552Z,100806.69
2023-03-03T19:18:01.772Z,100814.53
2023-03-03T19:20:42.346Z,100828.06
2023-03-03T19:23:37.111Z,100827.59
2023-03-03T19:26:23.766Z,100830.75
2023-03-03T19:29:10.001Z,100827.13
2023-03-03T19:31:49.571Z,100828.25
2023-03-03T19:34:44.538Z,100828.44
2023-03-03T19:37:37.158Z,100832.50
2023-03-03T19:40:32.184Z,100839.28
2023-03-03T19:43:17.062Z,100844.78
2023-03-03T19:45:47.876Z,100849.53
2023-03-03T19:48:24.026Z,100855.19
2023-03-03T19:51:10.323Z,100858.50
2023-03-03T19:53:44.073Z,100865.41
2023-03-03T19:56:24.243Z,100870.91
2023-03-03T19:59:03.606Z,100877.69
2023-03-03T20:02:03.884Z,100877.53
2023-03-03T20:04:53.396Z,100886.94
2023-03-03T20:07:42.974Z,100883.31
2023-03-03T20:10:29.128Z,100883.09
2023-03-03T20:13:21.943Z,100882.09
2023-03-03T20:16:20.780Z,100893.00
2023-03-03T20:19:16.403Z,100889.03
2023-03-03T20:22:08.602Z,100882.59
2023-03-03T20:24:55.804Z,100879.75
2023-03-03T20:27:58.148Z,100900.00
2023-03-03T20:30:26.523Z,100898.84
2023-03-03T20:33:02.573Z,100897.06
2023-03-03T20:35:52.579Z,100896.47
2023-03-03T20:38:33.148Z,100904.41
2023-03-03T20:41:07.233Z,100913.00
2023-03-03T20:44:01.061Z,100906.56
2023-03-03T20:46:44.595Z,100911.25
2023-03-03T20:49:28.364Z,100915.94
2023-03-03T20:52:03.892Z,100916.84
2023-03-03T20:54:50.957Z,100918.78
2023-03-03T20:57:36.702Z,100918.88
2023-03-03T21:00:11.937Z,100927.53
2023-03-03T21:02:41.197Z,100925.72
2023-03-03T21:05:10.314Z,100929.88
2023-03-03T21:07:38.232Z,100938.25
2023-03-03T21:10:13.699Z,100929.88
2023-03-03T21:12:41.612Z,100930.78
2023-03-03T21:15:22.413Z,100935.00
2023-03-03T21:17:50.441Z,100937.00
2023-03-03T21:20:25.473Z,100947.03
2023-03-03T21:22:54.359Z,100937.00
2023-03-03T21:25:40.372Z,100941.56
2023-03-03T21:28:15.561Z,100945.13
2023-03-03T21:31:02.791Z,100939.47
2023-03-03T21:33:42.655Z,100940.16
2023-03-03T21:36:11.424Z,100935.22
2023-03-03T21:38:39.758Z,100940.84
2023-03-03T21:41:08.002Z,100944.72
2023-03-03T21:43:40.795Z,100946.28
2023-03-03T21:46:08.856Z,100942.94
2023-03-03T21:48:40.203Z,100942.78
2023-03-03T21:51:08.402Z,100942.66
2023-03-03T21:53:36.034Z,100947.69
2023-03-03T21:56:03.934Z,100941.53
2023-03-03T21:58:31.454Z,100944.69
2023-03-03T22:00:59.365Z,100942.78
2023-03-03T22:03:27.022Z,100948.81
2023-03-03T22:05:54.965Z,100948.75
2023-03-03T22:08:25.495Z,100948.63
2023-03-03T22:10:56.505Z,100953.53
2023-03-03T22:13:25.056Z,100954.19
2023-03-03T22:15:53.455Z,100947.69
2023-03-03T22:18:21.216Z,100946.56
2023-03-03T22:20:50.654Z,100948.31
2023-03-03T22:23:19.469Z,100953.09
2023-03-03T22:25:48.237Z,100951.28
2023-03-03T22:28:15.812Z,100950.75
2023-03-03T22:30:43.987Z,100959.31
2023-03-03T22:33:11.570Z,100959.16
2023-03-03T22:35:39.839Z,100964.06
2023-03-03T22:38:07.576Z,100955.50
2023-03-03T22:40:35.433Z,100955.41
2023-03-03T22:43:02.937Z,100951.09
2023-03-03T22:45:30.867Z,100955.97
2023-03-03T22:47:58.426Z,100950.22
2023-03-03T22:50:26.492Z,100958.63
2023-03-03T22:52:55.432Z,100959.91
2023-03-03T22:55:23.296Z,100959.13
2023-03-03T22:57:50.858Z,100967.44
2023-03-03T23:00:18.952Z,100962.09
2023-03-03T23:02:46.412Z,100961.38
2023-03-03T23:05:14.251Z,100962.22
2023-03-03T23:07:42.077Z,100965.66
2023-03-03T23:10:10.372Z,100967.16
2023-03-03T23:12:38.180Z,100964.59
2023-03-03T23:15:13.291Z,100955.03
2023-03-03T23:17:41.998Z,100961.28
2023-03-03T23:20:11.212Z,100958.56
2023-03-03T23:22:38.824Z,100962.03
2023-03-03T23:25:07.058Z,100961.75
2023-03-03T23:27:34.876Z,100957.34
2023-03-03T23:30:03.089Z,100963.03
2023-03-03T23:32:30.733Z,100962.53
2023-03-03T23:34:58.700Z,100959.13
2023-03-03T23:37:26.349Z,100967.59
2023-03-03T23:39:54.149Z,100964.25
2023-03-03T23:42:21.667Z,100970.78
2023-03-03T23:44:49.705Z,100968.78
2023-03-03T23:47:17.348Z,100961.88
2023-03-03T23:49:45.338Z,100964.31
2023-03-03T23:52:12.891Z,100964.84
2023-03-03T23:54:40.658Z,100963.56
2023-03-03T23:57:08.338Z,100966.84
2023-03-03T23:59:36.237Z,100962.63
